createdAt,value
2017-07-21T00:02:02.599Z,99.90
2017-07-21T00:04:31.715Z,99.90
2017-07-21T00:06:59.865Z,99.90
2017-07-21T00:09:28.035Z,99.90
2017-07-21T00:11:56.170Z,99.90
2017-07-21T00:14:24.461Z,99.90
2017-07-21T00:16:52.693Z,99.90
2017-07-21T00:19:20.865Z,99.90
2017-07-21T00:21:49.059Z,99.90
2017-07-21T00:24:17.938Z,99.90
2017-07-21T00:26:46.295Z,99.90
2017-07-21T00:29:15.425Z,99.90
2017-07-21T00:31:43.676Z,99.90
2017-07-21T00:34:11.830Z,99.90
2017-07-21T00:36:40.742Z,99.90
2017-07-21T00:39:09.661Z,99.90
2017-07-21T00:41:37.801Z,99.90
2017-07-21T00:44:06.718Z,99.90
2017-07-21T00:46:34.865Z,99.90
2017-07-21T00:49:03.087Z,99.90
2017-07-21T00:51:31.223Z,99.90
2017-07-21T00:53:59.438Z,99.90
2017-07-21T00:56:27.584Z,99.90
2017-07-21T00:58:56.479Z,99.90
2017-07-21T01:01:24.712Z,99.90
2017-07-21T01:03:52.849Z,99.90
2017-07-21T01:06:21.000Z,99.90
2017-07-21T01:08:50.172Z,99.90
2017-07-21T01:11:19.215Z,99.90
2017-07-21T01:13:47.369Z,99.90
2017-07-21T01:16:15.522Z,99.90
2017-07-21T01:18:44.100Z,99.90
2017-07-21T01:21:12.249Z,99.90
2017-07-21T01:23:40.434Z,99.90
2017-07-21T01:26:09.349Z,99.90
2017-07-21T01:28:37.540Z,99.90
2017-07-21T01:31:05.788Z,99.90
2017-07-21T01:33:34.463Z,99.90
2017-07-21T01:36:02.642Z,99.90
2017-07-21T01:38:30.810Z,99.90
2017-07-21T01:40:59.767Z,99.90
2017-07-21T01:43:27.972Z,99.90
2017-07-21T01:45:56.214Z,99.90
2017-07-21T01:48:24.841Z,99.90
2017-07-21T01:50:52.995Z,99.90
2017-07-21T01:53:21.173Z,99.90
2017-07-21T01:55:49.434Z,99.90
2017-07-21T01:58:17.603Z,99.90
2017-07-21T02:00:45.755Z,99.90
2017-07-21T02:03:13.918Z,99.90
2017-07-21T02:05:42.447Z,99.90
2017-07-21T02:08:10.589Z,99.90
2017-07-21T02:10:38.763Z,99.90
2017-07-21T02:13:06.965Z,99.90
2017-07-21T02:15:35.118Z,99.90
2017-07-21T02:18:03.848Z,99.90
2017-07-21T02:20:32.759Z,99.90
2017-07-21T02:23:00.892Z,99.90
2017-07-21T02:25:29.068Z,99.90
2017-07-21T02:27:57.251Z,99.90
2017-07-21T02:30:25.383Z,99.90
2017-07-21T02:32:53.551Z,99.90
2017-07-21T02:35:21.689Z,99.90
2017-07-21T02:37:49.872Z,99.90
2017-07-21T02:40:17.981Z,99.90
2017-07-21T02:42:46.164Z,99.90
2017-07-21T02:45:14.431Z,99.90
2017-07-21T02:47:42.593Z,99.90
2017-07-21T02:50:10.766Z,99.90
2017-07-21T02:52:38.892Z,99.90
2017-07-21T02:55:07.222Z,99.90
2017-07-21T02:57:35.399Z,99.90
2017-07-21T03:00:04.039Z,99.90
2017-07-21T03:02:32.191Z,99.90
2017-07-21T03:05:00.322Z,99.90
2017-07-21T03:07:28.545Z,99.90
2017-07-21T03:09:56.903Z,99.90
2017-07-21T03:12:25.051Z,99.90
2017-07-21T03:14:53.267Z,99.90
2017-07-21T03:17:21.398Z,99.90
2017-07-21T03:19:50.157Z,99.90
2017-07-21T03:22:18.315Z,99.90
2017-07-21T03:24:46.457Z,99.90
2017-07-21T03:27:14.615Z,99.90
2017-07-21T03:29:42.834Z,99.90
2017-07-21T03:32:11.001Z,99.90
2017-07-21T03:34:39.127Z,99.90
2017-07-21T03:37:07.285Z,99.90
2017-07-21T03:39:36.280Z,99.90
2017-07-21T03:42:04.431Z,99.90
2017-07-21T03:44:32.718Z,99.90
2017-07-21T03:47:00.862Z,99.90
2017-07-21T03:49:29.264Z,99.90
2017-07-21T03:51:57.555Z,99.90
2017-07-21T03:54:26.442Z,99.90
2017-07-21T03:56:54.630Z,99.90
2017-07-21T03:59:22.756Z,99.90
2017-07-21T04:01:50.892Z,99.90
2017-07-21T04:04:19.063Z,99.90
2017-07-21T04:06:47.978Z,99.90
2017-07-21T04:09:16.132Z,99.90
2017-07-21T04:11:44.256Z,99.90
2017-07-21T04:14:13.021Z,99.90
2017-07-21T04:16:42.039Z,99.90
2017-07-21T04:19:10.172Z,99.90
2017-07-21T04:21:38.463Z,99.90
2017-07-21T04:24:06.625Z,99.90
2017-07-21T04:26:34.803Z,99.90
2017-07-21T04:29:02.976Z,99.90
2017-07-21T04:31:31.132Z,99.90
2017-07-21T04:33:59.378Z,99.90
2017-07-21T04:36:28.281Z,99.90
2017-07-21T04:38:56.425Z,99.90
2017-07-21T04:41:24.579Z,99.90
2017-07-21T04:43:52.755Z,99.90
2017-07-21T04:46:20.921Z,99.90
2017-07-21T04:48:49.087Z,99.90
2017-07-21T04:51:18.163Z,99.90
2017-07-21T04:53:46.335Z,99.90
2017-07-21T04:56:14.493Z,99.90
2017-07-21T04:58:42.643Z,99.90
2017-07-21T05:01:11.731Z,99.90
2017-07-21T05:03:39.888Z,99.90
2017-07-21T05:06:08.081Z,99.90
2017-07-21T05:08:36.291Z,99.90
2017-07-21T05:11:04.570Z,99.90
2017-07-21T05:13:32.715Z,99.90
2017-07-21T05:16:00.861Z,99.90
2017-07-21T05:18:29.036Z,99.90
2017-07-21T05:20:57.178Z,99.90
2017-07-21T05:23:25.323Z,99.90
2017-07-21T05:25:53.571Z,99.90
2017-07-21T05:28:21.712Z,99.90
2017-07-21T05:30:50.020Z,99.90
2017-07-21T05:33:18.718Z,99.90
2017-07-21T05:35:46.877Z,99.90
2017-07-21T05:38:15.829Z,99.90
2017-07-21T05:40:44.469Z,99.90
2017-07-21T05:43:12.621Z,99.90
2017-07-21T05:45:40.762Z,99.90
2017-07-21T05:48:09.091Z,99.90
2017-07-21T05:50:37.225Z,99.90
2017-07-21T05:53:05.363Z,99.90
2017-07-21T05:55:33.533Z,99.90
2017-07-21T05:58:02.457Z,99.90
2017-07-21T06:00:30.669Z,99.90
2017-07-21T06:02:58.868Z,99.90
2017-07-21T06:05:27.743Z,99.90
2017-07-21T06:10:34.450Z,99.90
2017-07-21T06:13:02.637Z,99.90
2017-07-21T06:15:31.504Z,99.90
2017-07-21T06:17:59.624Z,99.90
2017-07-21T06:20:28.713Z,99.90
2017-07-21T06:22:56.885Z,99.90
2017-07-21T06:25:25.131Z,99.90
2017-07-21T06:27:54.151Z,99.90
2017-07-21T06:30:22.646Z,99.90
2017-07-21T06:32:50.819Z,99.90
2017-07-21T06:35:18.963Z,99.90
2017-07-21T06:37:47.146Z,99.90
2017-07-21T06:40:16.041Z,99.90
2017-07-21T06:42:44.352Z,99.90
2017-07-21T06:45:12.590Z,99.90
2017-07-21T06:47:40.722Z,99.90
2017-07-21T06:50:08.897Z,99.90
2017-07-21T06:52:37.731Z,99.90
2017-07-21T06:55:05.858Z,99.90
2017-07-21T06:57:34.052Z,99.90
2017-07-21T07:00:02.185Z,99.90
2017-07-21T07:02:30.406Z,99.90
2017-07-21T07:04:58.529Z,99.90
2017-07-21T07:07:26.648Z,99.90
2017-07-21T07:09:54.798Z,99.90
2017-07-21T07:12:23.004Z,99.90
2017-07-21T07:14:51.169Z,99.90
2017-07-21T07:17:19.291Z,99.90
2017-07-21T07:19:47.413Z,99.90
2017-07-21T07:22:16.145Z,99.90
2017-07-21T07:24:44.335Z,99.90
2017-07-21T07:27:12.822Z,99.90
2017-07-21T07:29:40.985Z,99.90
2017-07-21T07:32:09.157Z,99.90
2017-07-21T07:34:37.320Z,99.90
2017-07-21T07:37:05.821Z,99.90
2017-07-21T07:39:34.652Z,99.90
2017-07-21T07:42:03.150Z,99.90
2017-07-21T07:44:31.587Z,99.90
2017-07-21T07:46:59.726Z,99.90
2017-07-21T07:49:28.737Z,99.90
2017-07-21T07:51:57.515Z,99.90
2017-07-21T07:54:25.689Z,99.90
2017-07-21T07:56:54.585Z,99.90
2017-07-21T07:59:23.386Z,99.90
2017-07-21T08:01:51.621Z,99.90
2017-07-21T08:04:19.768Z,99.90
2017-07-21T08:06:48.658Z,99.90
2017-07-21T08:09:17.578Z,99.90
2017-07-21T08:11:45.724Z,99.90
2017-07-21T08:14:13.877Z,99.90
2017-07-21T08:16:41.999Z,99.90
2017-07-21T08:19:10.175Z,99.90
2017-07-21T08:21:38.314Z,99.90
2017-07-21T08:24:06.459Z,99.90
2017-07-21T08:26:34.602Z,99.90
2017-07-21T08:29:02.740Z,99.90
2017-07-21T08:31:30.908Z,99.50
2017-07-21T08:33:59.043Z,99.30
2017-07-21T08:36:27.384Z,98.60
2017-07-21T08:38:55.582Z,98.40
2017-07-21T08:41:23.763Z,97.60
2017-07-21T08:43:51.950Z,97.00
2017-07-21T08:46:20.083Z,96.80
2017-07-21T08:48:48.428Z,96.80
2017-07-21T08:51:17.377Z,97.00
2017-07-21T08:53:45.510Z,96.80
2017-07-21T08:56:13.922Z,96.80
2017-07-21T08:58:42.049Z,96.00
2017-07-21T09:01:11.848Z,95.80
2017-07-21T09:03:40.167Z,95.80
2017-07-21T09:06:08.296Z,95.40
2017-07-21T09:08:36.500Z,95.20
2017-07-21T09:11:05.350Z,94.60
2017-07-21T09:13:33.497Z,94.60
2017-07-21T09:16:02.208Z,94.00
2017-07-21T09:18:30.344Z,93.70
2017-07-21T09:20:58.490Z,93.80
2017-07-21T09:23:26.620Z,94.00
2017-07-21T09:25:55.648Z,94.90
2017-07-21T09:28:24.072Z,95.50
2017-07-21T09:30:52.251Z,95.10
2017-07-21T09:33:20.531Z,94.70
2017-07-21T09:35:49.430Z,94.00
2017-07-21T09:38:17.557Z,94.00
2017-07-21T09:40:45.699Z,93.80
2017-07-21T09:43:14.539Z,93.90
2017-07-21T09:45:42.747Z,93.80
2017-07-21T09:48:10.967Z,93.80
2017-07-21T09:50:39.128Z,93.60
2017-07-21T09:53:07.248Z,94.00
2017-07-21T09:55:35.405Z,93.80
2017-07-21T09:58:03.602Z,94.50
2017-07-21T10:00:31.774Z,95.20
2017-07-21T10:03:00.097Z,94.80
2017-07-21T10:05:28.226Z,94.70
2017-07-21T10:07:56.363Z,94.90
2017-07-21T10:10:24.553Z,94.90
2017-07-21T10:12:52.934Z,95.60
2017-07-21T10:15:21.080Z,94.90
2017-07-21T10:17:49.218Z,95.20
2017-07-21T10:20:17.398Z,95.70
2017-07-21T10:22:45.589Z,96.10
2017-07-21T10:25:13.802Z,95.90
2017-07-21T10:27:41.972Z,95.50
2017-07-21T10:30:10.876Z,95.20
2017-07-21T10:32:39.045Z,95.20
2017-07-21T10:35:07.242Z,94.90
2017-07-21T10:37:35.408Z,94.30
2017-07-21T10:40:04.416Z,94.00
2017-07-21T10:42:33.323Z,91.90
2017-07-21T10:45:01.835Z,91.90
2017-07-21T10:47:29.967Z,91.30
2017-07-21T10:49:58.106Z,91.90
2017-07-21T10:52:27.452Z,92.00
2017-07-21T10:54:55.607Z,92.00
2017-07-21T10:57:23.770Z,91.90
2017-07-21T10:59:51.906Z,91.50
2017-07-21T11:02:20.029Z,91.20
2017-07-21T11:04:49.012Z,90.70
2017-07-21T11:07:17.137Z,90.70
2017-07-21T11:09:45.331Z,90.90
2017-07-21T11:12:15.225Z,90.80
2017-07-21T11:14:44.195Z,90.30
2017-07-21T11:17:12.596Z,90.10
2017-07-21T11:19:41.141Z,89.30
2017-07-21T11:22:09.357Z,87.30
2017-07-21T11:24:38.276Z,86.80
2017-07-21T11:27:06.419Z,86.80
2017-07-21T11:29:35.310Z,86.20
2017-07-21T11:32:03.540Z,86.20
2017-07-21T11:34:32.396Z,85.90
2017-07-21T11:37:00.626Z,84.70
2017-07-21T11:39:28.783Z,83.60
2017-07-21T11:41:56.942Z,83.20
2017-07-21T11:44:25.273Z,83.50
2017-07-21T11:46:53.482Z,82.00
2017-07-21T11:49:21.637Z,83.10
2017-07-21T11:51:49.783Z,83.60
2017-07-21T11:54:18.028Z,83.50
2017-07-21T11:56:46.215Z,83.80
2017-07-21T11:59:14.427Z,83.60
2017-07-21T12:01:42.699Z,82.60
2017-07-21T12:04:11.970Z,82.90
2017-07-21T12:06:40.200Z,83.50
2017-07-21T12:09:09.107Z,80.30
2017-07-21T12:11:37.603Z,80.20
2017-07-21T12:14:05.771Z,80.20
2017-07-21T12:16:34.244Z,78.50
2017-07-21T12:19:02.977Z,77.90
2017-07-21T12:21:31.876Z,78.00
2017-07-21T12:24:00.081Z,78.00
2017-07-21T12:26:28.196Z,77.40
2017-07-21T12:28:56.447Z,77.40
2017-07-21T12:31:24.620Z,75.90
2017-07-21T12:33:52.828Z,76.00
2017-07-21T12:36:21.039Z,75.30
2017-07-21T12:38:49.931Z,73.90
2017-07-21T12:41:19.435Z,72.60
2017-07-21T12:43:47.626Z,72.60
2017-07-21T12:46:15.731Z,72.50
2017-07-21T12:48:44.777Z,71.70
2017-07-21T12:51:12.999Z,71.60
2017-07-21T12:53:41.180Z,71.90
2017-07-21T12:56:09.349Z,72.60
2017-07-21T12:58:38.214Z,73.00
2017-07-21T13:01:06.388Z,74.20
2017-07-21T13:03:34.520Z,75.50
2017-07-21T13:06:02.789Z,76.30
2017-07-21T13:08:31.322Z,81.30
2017-07-21T13:10:59.492Z,79.70
2017-07-21T13:13:27.643Z,79.00
2017-07-21T13:15:55.756Z,81.00
2017-07-21T13:18:24.748Z,80.90
2017-07-21T13:20:53.006Z,80.00
2017-07-21T13:23:21.160Z,77.90
2017-07-21T13:25:49.960Z,78.60
2017-07-21T13:28:20.145Z,76.80
2017-07-21T13:30:48.306Z,76.70
2017-07-21T13:33:16.450Z,77.80
2017-07-21T13:35:44.670Z,79.30
2017-07-21T13:38:12.885Z,78.40
2017-07-21T13:40:41.013Z,79.70
2017-07-21T13:43:09.185Z,79.00
2017-07-21T13:45:37.350Z,79.70
2017-07-21T13:48:05.558Z,79.50
2017-07-21T13:50:33.718Z,78.90
2017-07-21T13:53:01.869Z,77.10
2017-07-21T13:55:30.001Z,77.00
2017-07-21T13:57:58.345Z,77.90
2017-07-21T14:00:26.954Z,77.80
2017-07-21T14:02:55.133Z,79.40
2017-07-21T14:05:23.302Z,77.60
2017-07-21T14:07:52.678Z,76.90
2017-07-21T14:10:21.418Z,76.90
2017-07-21T14:12:49.574Z,76.70
2017-07-21T14:15:18.704Z,77.80
2017-07-21T14:17:47.652Z,76.80
2017-07-21T14:20:16.550Z,78.40
2017-07-21T14:22:46.841Z,78.50
2017-07-21T14:25:15.806Z,78.30
2017-07-21T14:27:44.051Z,79.30
2017-07-21T14:30:12.202Z,78.30
2017-07-21T14:32:40.318Z,79.40
2017-07-21T14:35:08.634Z,78.90
2017-07-21T14:37:37.390Z,77.20
2017-07-21T14:40:05.821Z,78.70
2017-07-21T14:42:34.050Z,79.40
2017-07-21T14:45:02.246Z,78.60
2017-07-21T14:47:30.451Z,79.30
2017-07-21T14:49:58.588Z,77.80
2017-07-21T14:52:26.768Z,78.60
2017-07-21T14:54:54.938Z,78.80
2017-07-21T14:57:23.079Z,77.70
2017-07-21T14:59:51.992Z,79.80
2017-07-21T15:02:20.148Z,79.80
2017-07-21T15:04:48.320Z,79.60
2017-07-21T15:07:16.459Z,78.60
2017-07-21T15:09:44.628Z,79.70
2017-07-21T15:12:12.788Z,79.50
2017-07-21T15:14:41.042Z,79.30
2017-07-21T15:17:09.819Z,79.90
2017-07-21T15:19:38.028Z,79.70
2017-07-21T15:22:06.228Z,79.90
2017-07-21T15:24:34.834Z,78.80
2017-07-21T15:27:02.969Z,79.40
2017-07-21T15:29:31.140Z,79.70
2017-07-21T15:31:59.982Z,79.40
2017-07-21T15:34:28.156Z,80.00
2017-07-21T15:36:56.274Z,80.00
2017-07-21T15:39:24.430Z,79.80
2017-07-21T15:41:52.588Z,79.30
2017-07-21T15:44:21.518Z,80.40
2017-07-21T15:46:49.874Z,80.30
2017-07-21T15:49:18.025Z,80.50
2017-07-21T15:51:46.201Z,79.90
2017-07-21T15:54:14.717Z,80.10
2017-07-21T15:56:43.072Z,79.50
2017-07-21T15:59:11.252Z,80.20
2017-07-21T16:01:39.546Z,80.40
2017-07-21T16:04:07.725Z,80.10
2017-07-21T16:06:35.879Z,79.90
2017-07-21T16:09:04.010Z,78.70
2017-07-21T16:11:33.022Z,79.30
2017-07-21T16:14:01.794Z,78.80
2017-07-21T16:16:31.584Z,79.20
2017-07-21T16:18:59.835Z,80.30
2017-07-21T16:21:27.966Z,79.00
2017-07-21T16:23:57.914Z,79.50
2017-07-21T16:26:26.154Z,79.40
2017-07-21T16:28:54.300Z,79.00
2017-07-21T16:31:22.471Z,80.10
2017-07-21T16:33:50.606Z,78.20
2017-07-21T16:36:18.782Z,78.20
2017-07-21T16:38:46.937Z,78.60
2017-07-21T16:41:15.058Z,78.90
2017-07-21T16:43:43.271Z,80.10
2017-07-21T16:46:11.434Z,79.40
2017-07-21T16:48:40.367Z,80.80
2017-07-21T16:51:08.498Z,80.10
2017-07-21T16:53:36.650Z,79.40
2017-07-21T16:56:04.837Z,79.70
2017-07-21T16:58:32.965Z,80.90
2017-07-21T17:01:01.235Z,81.40
2017-07-21T17:03:29.382Z,82.00
2017-07-21T17:05:57.537Z,81.40
2017-07-21T17:08:25.678Z,80.30
2017-07-21T17:10:53.808Z,79.40
2017-07-21T17:13:21.977Z,79.90
2017-07-21T17:15:50.103Z,79.60
2017-07-21T17:18:18.254Z,80.20
2017-07-21T17:20:46.410Z,80.30
2017-07-21T17:23:14.553Z,79.60
2017-07-21T17:25:43.478Z,78.80
2017-07-21T17:28:11.831Z,79.60
2017-07-21T17:30:39.961Z,79.60
2017-07-21T17:33:08.145Z,80.70
2017-07-21T17:35:36.355Z,80.70
2017-07-21T17:38:04.503Z,80.10
2017-07-21T17:40:32.607Z,81.00
2017-07-21T17:43:00.716Z,81.10
2017-07-21T17:45:28.988Z,79.80
2017-07-21T17:47:57.115Z,80.20
2017-07-21T17:50:25.290Z,79.30
2017-07-21T17:52:53.436Z,79.30
2017-07-21T17:55:21.562Z,80.00
2017-07-21T17:57:49.712Z,80.00
2017-07-21T18:00:17.869Z,79.50
2017-07-21T18:02:46.036Z,81.40
2017-07-21T18:05:14.619Z,81.10
2017-07-21T18:07:42.814Z,80.60
2017-07-21T18:10:11.024Z,81.60
2017-07-21T18:12:39.169Z,80.30
2017-07-21T18:15:07.504Z,80.90
2017-07-21T18:17:35.642Z,80.20
2017-07-21T18:20:03.853Z,80.50
2017-07-21T18:22:32.036Z,81.00
2017-07-21T18:25:00.192Z,81.30
2017-07-21T18:27:28.367Z,81.00
2017-07-21T18:29:56.493Z,80.70
2017-07-21T18:32:24.949Z,80.80
2017-07-21T18:34:53.150Z,81.00
2017-07-21T18:37:21.308Z,81.40
2017-07-21T18:39:49.497Z,81.20
2017-07-21T18:42:17.679Z,80.90
2017-07-21T18:44:45.817Z,81.40
2017-07-21T18:47:13.986Z,81.60
2017-07-21T18:49:42.119Z,81.90
2017-07-21T18:52:10.356Z,81.50
2017-07-21T18:54:38.525Z,81.50
2017-07-21T18:57:06.819Z,82.00
2017-07-21T18:59:35.730Z,81.40
2017-07-21T19:02:03.873Z,81.40
2017-07-21T19:04:32.038Z,81.70
2017-07-21T19:07:00.174Z,81.50
2017-07-21T19:09:28.398Z,81.20
2017-07-21T19:11:56.557Z,81.00
2017-07-21T19:14:24.674Z,81.40
2017-07-21T19:16:52.816Z,81.80
2017-07-21T19:19:21.765Z,83.20
2017-07-21T19:21:49.927Z,82.80
2017-07-21T19:24:18.050Z,83.20
2017-07-21T19:26:46.181Z,83.00
2017-07-21T19:29:14.313Z,83.20
2017-07-21T19:31:42.457Z,83.90
2017-07-21T19:34:11.551Z,83.90
2017-07-21T19:36:39.666Z,83.90
2017-07-21T19:39:07.799Z,84.10
2017-07-21T19:41:35.962Z,84.50
2017-07-21T19:44:04.080Z,84.60
2017-07-21T19:46:32.229Z,84.60
2017-07-21T19:49:00.368Z,85.10
2017-07-21T19:51:28.758Z,84.60
2017-07-21T19:53:56.899Z,83.50
2017-07-21T19:56:26.929Z,84.30
2017-07-21T19:58:55.064Z,83.60
2017-07-21T20:01:23.202Z,83.60
2017-07-21T20:03:51.398Z,85.30
2017-07-21T20:06:20.642Z,84.00
2017-07-21T20:08:48.783Z,84.20
2017-07-21T20:11:17.887Z,84.50
2017-07-21T20:13:46.274Z,84.60
2017-07-21T20:16:14.483Z,84.10
2017-07-21T20:18:43.564Z,85.60
2017-07-21T20:21:12.490Z,85.50
2017-07-21T20:23:40.706Z,85.10
2017-07-21T20:26:08.839Z,85.20
2017-07-21T20:28:37.127Z,84.80
2017-07-21T20:31:05.270Z,85.70
2017-07-21T20:33:33.505Z,86.40
2017-07-21T20:36:01.685Z,86.90
2017-07-21T20:38:29.839Z,86.80
2017-07-21T20:40:58.018Z,87.30
2017-07-21T20:43:26.176Z,88.20
2017-07-21T20:45:55.251Z,88.80
2017-07-21T20:48:23.408Z,88.50
2017-07-21T20:50:51.580Z,87.30
2017-07-21T20:53:19.745Z,87.20
2017-07-21T20:55:47.879Z,88.10
2017-07-21T20:58:16.061Z,88.70
2017-07-21T21:00:44.265Z,89.20
2017-07-21T21:03:13.222Z,87.20
2017-07-21T21:05:41.445Z,87.20
2017-07-21T21:08:09.583Z,88.40
2017-07-21T21:10:38.514Z,88.10
2017-07-21T21:13:07.314Z,88.10
2017-07-21T21:15:35.509Z,88.00
2017-07-21T21:18:03.681Z,88.90
2017-07-21T21:20:31.817Z,90.20
2017-07-21T21:23:00.017Z,90.60
2017-07-21T21:25:28.151Z,91.30
2017-07-21T21:27:57.058Z,91.90
2017-07-21T21:30:25.233Z,91.90
2017-07-21T21:32:53.374Z,92.30
2017-07-21T21:35:22.329Z,92.70
2017-07-21T21:37:50.465Z,92.70
2017-07-21T21:40:19.766Z,92.50
2017-07-21T21:42:47.959Z,93.00
2017-07-21T21:45:16.990Z,93.10
2017-07-21T21:47:45.229Z,93.00
2017-07-21T21:50:13.380Z,92.40
2017-07-21T21:52:41.504Z,92.70
2017-07-21T21:55:09.671Z,91.80
2017-07-21T21:57:37.883Z,91.20
2017-07-21T22:00:06.105Z,91.40
2017-07-21T22:02:35.004Z,92.00
2017-07-21T22:05:03.129Z,91.90
2017-07-21T22:07:31.312Z,92.20
2017-07-21T22:09:59.554Z,92.30
2017-07-21T22:12:27.706Z,92.20
2017-07-21T22:14:55.816Z,92.40
2017-07-21T22:17:24.305Z,92.80
2017-07-21T22:19:53.354Z,93.80
2017-07-21T22:22:21.487Z,93.80
2017-07-21T22:24:49.847Z,94.80
2017-07-21T22:27:17.981Z,93.40
2017-07-21T22:29:46.248Z,93.00
2017-07-21T22:32:14.382Z,93.20
2017-07-21T22:34:43.426Z,93.50
2017-07-21T22:37:11.567Z,94.00
2017-07-21T22:39:39.695Z,93.70
2017-07-21T22:42:08.655Z,93.90
2017-07-21T22:44:36.801Z,93.90
2017-07-21T22:47:05.017Z,93.80
2017-07-21T22:49:33.167Z,94.10
2017-07-21T22:52:02.077Z,94.40
2017-07-21T22:54:30.246Z,94.30
2017-07-21T22:56:58.368Z,94.60
2017-07-21T22:59:26.475Z,95.00
2017-07-21T23:01:54.602Z,94.80
2017-07-21T23:04:22.740Z,95.00
2017-07-21T23:06:50.907Z,95.10
2017-07-21T23:09:19.035Z,95.20
2017-07-21T23:11:47.157Z,95.30
2017-07-21T23:14:15.336Z,95.40
2017-07-21T23:16:44.248Z,95.70
2017-07-21T23:19:12.418Z,95.70
2017-07-21T23:21:40.558Z,95.90
2017-07-21T23:24:09.966Z,95.90
2017-07-21T23:26:38.155Z,95.80
2017-07-21T23:29:06.399Z,96.00
2017-07-21T23:31:34.732Z,96.10
2017-07-21T23:34:02.918Z,96.30
2017-07-21T23:36:32.234Z,96.30
2017-07-21T23:39:00.405Z,96.30
2017-07-21T23:41:28.766Z,96.40
2017-07-21T23:43:56.968Z,96.40
2017-07-21T23:46:25.114Z,96.70
2017-07-21T23:48:53.321Z,97.50
2017-07-21T23:51:21.456Z,97.90
2017-07-21T23:53:49.621Z,99.50
2017-07-21T23:56:17.776Z,99.90
2017-07-21T23:58:46.691Z,99.90
